createdAt,value
2019-05-05T00:01:39.031Z,96633.42
2019-05-05T00:04:40.492Z,96632.37
2019-05-05T00:07:14.917Z,96637.55
2019-05-05T00:09:46.016Z,96640.94
2019-05-05T00:12:44.934Z,96637.56
2019-05-05T00:15:29.710Z,96639.50
2019-05-05T00:18:00.681Z,96643.09
2019-05-05T00:20:32.011Z,96643.22
2019-05-05T00:23:05.317Z,96645.30
2019-05-05T00:25:55.669Z,96641.11
2019-05-05T00:28:26.074Z,96646.41
2019-05-05T00:30:57.430Z,96650.47
2019-05-05T00:33:28.559Z,96653.44
2019-05-05T00:35:59.883Z,96659.64
2019-05-05T01:03:11.229Z,96661.05
2019-05-05T01:05:55.298Z,96658.62
2019-05-05T01:08:29.051Z,96664.86
2019-05-05T01:11:00.767Z,96662.98
2019-05-05T01:13:32.410Z,96659.31
2019-05-05T01:16:16.792Z,96658.48
2019-05-05T01:18:48.748Z,96659.11
2019-05-05T01:21:20.098Z,96660.28
2019-05-05T01:23:51.649Z,96656.16
2019-05-05T01:26:24.857Z,96660.84
2019-05-05T01:28:56.430Z,96657.50
2019-05-05T01:31:27.441Z,96665.02
2019-05-05T01:34:24.339Z,96660.78
2019-05-05T01:37:04.890Z,96666.56
2019-05-05T01:40:14.279Z,96671.95
2019-05-05T01:42:45.409Z,96675.92
2019-05-05T01:45:24.232Z,96677.05
2019-05-05T01:47:55.546Z,96669.70
2019-05-05T01:50:27.112Z,96667.85
2019-05-05T01:52:58.701Z,96668.04
2019-05-05T01:55:34.709Z,96671.97
2019-05-05T01:58:06.429Z,96670.29
2019-05-05T02:00:37.879Z,96669.41
2019-05-05T02:03:14.791Z,96670.39
2019-05-05T02:05:46.110Z,96673.69
2019-05-05T02:08:17.546Z,96680.67
2019-05-05T02:10:48.766Z,96678.75
2019-05-05T02:13:20.288Z,96682.08
2019-05-05T02:15:51.505Z,96690.20
2019-05-05T02:18:22.932Z,96683.89
2019-05-05T02:21:04.983Z,96682.66
2019-05-05T02:23:37.927Z,96683.22
2019-05-05T02:26:12.131Z,96680.12
2019-05-05T02:29:04.765Z,96674.40
2019-05-05T02:31:55.258Z,96679.67
2019-05-05T02:34:27.234Z,96679.98
2019-05-05T02:36:57.872Z,96672.93
2019-05-05T02:39:29.270Z,96676.70
2019-05-05T02:42:00.924Z,96675.35
2019-05-05T02:44:35.592Z,96680.88
2019-05-05T02:47:25.857Z,96677.27
2019-05-05T02:50:01.448Z,96674.15
2019-05-05T02:52:34.820Z,96670.69
2019-05-05T02:55:06.948Z,96671.39
2019-05-05T02:57:38.201Z,96679.52
2019-05-05T03:00:23.999Z,96683.78
2019-05-05T03:02:56.157Z,96688.08
2019-05-05T03:05:27.272Z,96684.57
2019-05-05T03:07:59.810Z,96676.16
2019-05-05T03:10:33.954Z,96670.53
2019-05-05T03:13:05.990Z,96669.78
2019-05-05T03:16:03.757Z,96663.55
2019-05-05T03:18:35.778Z,96668.20
2019-05-05T03:21:07.734Z,96666.80
2019-05-05T03:23:39.043Z,96662.86
2019-05-05T03:26:10.084Z,96668.97
2019-05-05T03:28:45.807Z,96669.59
2019-05-05T03:31:17.398Z,96665.51
2019-05-05T03:33:47.726Z,96666.58
2019-05-05T03:36:18.988Z,96662.77
2019-05-05T03:38:50.722Z,96663.61
2019-05-05T03:41:26.968Z,96663.89
2019-05-05T03:44:14.130Z,96665.39
2019-05-05T03:46:45.421Z,96666.23
2019-05-05T03:49:17.070Z,96665.84
2019-05-05T03:51:48.130Z,96663.19
2019-05-05T03:54:19.726Z,96671.26
2019-05-05T03:56:54.552Z,96666.70
2019-05-05T03:59:25.803Z,96668.20
2019-05-05T04:02:07.238Z,96669.80
2019-05-05T04:04:44.845Z,96672.56
2019-05-05T04:07:16.704Z,96677.86
2019-05-05T04:09:48.544Z,96681.23
2019-05-05T04:12:19.447Z,96676.11
2019-05-05T04:14:51.342Z,96680.09
2019-05-05T04:17:50.122Z,96680.02
2019-05-05T04:20:29.985Z,96684.56
2019-05-05T04:23:03.573Z,96685.78
2019-05-05T04:25:35.117Z,96685.07
2019-05-05T04:28:06.692Z,96685.47
2019-05-05T04:30:38.195Z,96686.31
2019-05-05T04:33:08.793Z,96691.30
2019-05-05T04:35:40.458Z,96692.33
2019-05-05T04:38:13.909Z,96694.01
2019-05-05T04:40:45.403Z,96693.56
2019-05-05T04:43:17.283Z,96707.16
2019-05-05T04:45:48.992Z,96711.90
2019-05-05T04:48:28.963Z,96705.77
2019-05-05T04:51:24.992Z,96709.73
2019-05-05T04:54:27.322Z,96711.12
2019-05-05T04:56:58.603Z,96712.62
2019-05-05T04:59:29.550Z,96717.66
2019-05-05T05:02:04.112Z,96712.19
2019-05-05T05:04:50.166Z,96716.25
2019-05-05T05:07:24.030Z,96723.22
2019-05-05T05:09:55.065Z,96723.01
2019-05-05T05:12:26.560Z,96722.56
2019-05-05T05:14:57.619Z,96734.52
2019-05-05T05:17:47.385Z,96731.13
2019-05-05T05:20:18.433Z,96729.97
2019-05-05T05:22:49.676Z,96732.17
2019-05-05T05:25:49.052Z,96729.45
2019-05-05T05:28:20.869Z,96731.98
2019-05-05T05:30:54.356Z,96743.03
2019-05-05T05:33:25.094Z,96745.77
2019-05-05T05:35:55.739Z,96746.36
2019-05-05T05:38:26.366Z,96746.94
2019-05-05T05:41:16.707Z,96748.36
2019-05-05T05:44:03.552Z,96744.21
2019-05-05T05:47:03.693Z,96750.25
2019-05-05T05:49:44.005Z,96765.19
2019-05-05T05:52:19.088Z,96773.29
2019-05-05T05:54:53.578Z,96764.92
2019-05-05T05:57:24.926Z,96767.11
2019-05-05T05:59:55.854Z,96767.39
2019-05-05T06:02:27.531Z,96777.70
2019-05-05T06:04:58.884Z,96783.44
2019-05-05T06:07:36.694Z,96786.16
2019-05-05T06:10:21.452Z,96789.56
2019-05-05T06:12:42.582Z,96794.19
2019-05-05T06:15:14.211Z,96795.36
2019-05-05T06:17:45.886Z,96797.83
2019-05-05T06:20:16.875Z,96801.69
2019-05-05T06:22:48.354Z,96800.77
2019-05-05T06:25:19.734Z,96796.04
2019-05-05T06:27:50.505Z,96807.46
2019-05-05T06:30:21.762Z,96815.07
2019-05-05T06:32:54.460Z,96818.69
2019-05-05T06:35:25.581Z,96814.92
2019-05-05T06:39:01.679Z,96829.25
2019-05-05T06:41:48.768Z,96835.68
2019-05-05T06:44:33.939Z,96844.41
2019-05-05T06:47:10.713Z,96846.13
2019-05-05T06:49:43.765Z,96848.96
2019-05-05T06:52:15.542Z,96853.50
2019-05-05T06:54:46.473Z,96854.94
2019-05-05T06:57:17.876Z,96857.88
2019-05-05T06:59:49.583Z,96855.36
2019-05-05T07:02:20.531Z,96852.56
2019-05-05T07:04:52.072Z,96854.58
2019-05-05T07:07:23.865Z,96856.88
2019-05-05T07:09:55.198Z,96866.63
2019-05-05T07:12:44.086Z,96864.82
2019-05-05T07:15:20.901Z,96863.91
2019-05-05T07:17:53.557Z,96873.20
2019-05-05T07:20:25.262Z,96870.68
2019-05-05T07:23:02.040Z,96870.03
2019-05-05T07:25:40.666Z,96877.39
2019-05-05T07:28:04.275Z,96872.34
2019-05-05T07:30:36.097Z,96874.43
2019-05-05T07:33:07.092Z,96876.72
2019-05-05T07:35:56.925Z,96879.67
2019-05-05T07:38:19.857Z,96876.72
2019-05-05T07:41:03.532Z,96875.80
2019-05-05T07:43:34.938Z,96879.47
2019-05-05T07:46:05.933Z,96871.86
2019-05-05T07:48:37.562Z,96868.13
2019-05-05T07:51:14.131Z,96867.05
2019-05-05T07:53:45.672Z,96867.21
2019-05-05T07:56:27.584Z,96862.28
2019-05-05T07:58:59.429Z,96869.13
2019-05-05T08:01:33.101Z,96863.31
2019-05-05T08:04:04.475Z,96858.35
2019-05-05T08:06:36.237Z,96856.33
2019-05-05T08:09:08.406Z,96853.53
2019-05-05T08:11:39.825Z,96857.56
2019-05-05T08:14:11.105Z,96855.03
2019-05-05T08:16:57.833Z,96856.73
2019-05-05T08:19:50.243Z,96864.06
2019-05-05T08:22:23.526Z,96863.06
2019-05-05T08:25:04.117Z,96858.05
2019-05-05T08:28:04.274Z,96852.65
2019-05-05T08:30:44.829Z,96864.07
2019-05-05T08:33:16.255Z,96856.77
2019-05-05T08:35:47.269Z,96854.58
2019-05-05T08:38:18.532Z,96858.35
2019-05-05T08:40:50.388Z,96861.80
2019-05-05T08:43:25.814Z,96861.67
2019-05-05T08:45:57.598Z,96866.33
2019-05-05T08:48:30.204Z,96865.04
2019-05-05T08:51:01.794Z,96863.98
2019-05-05T08:53:44.169Z,96875.05
2019-05-05T08:56:06.181Z,96869.68
2019-05-05T08:58:37.207Z,96870.27
2019-05-05T09:01:07.947Z,96870.23
2019-05-05T09:03:39.470Z,96870.42
2019-05-05T09:06:40.417Z,96872.23
2019-05-05T09:09:11.092Z,96872.49
2019-05-05T09:11:43.750Z,96878.16
2019-05-05T09:14:15.080Z,96881.34
2019-05-05T09:16:46.426Z,96881.47
2019-05-05T09:19:20.305Z,96873.05
2019-05-05T09:21:51.596Z,96880.39
2019-05-05T09:24:37.039Z,96877.67
2019-05-05T09:27:36.340Z,96879.88
2019-05-05T09:30:08.349Z,96886.25
2019-05-05T09:32:39.981Z,96899.27
2019-05-05T09:35:13.738Z,96893.35
2019-05-05T09:37:46.025Z,96896.33
2019-05-05T09:40:24.173Z,96889.81
2019-05-05T09:42:55.643Z,96896.54
2019-05-05T09:45:26.769Z,96894.95
2019-05-05T09:47:58.350Z,96899.55
2019-05-05T09:50:29.852Z,96888.94
2019-05-05T09:53:16.681Z,96903.95
2019-05-05T09:55:47.409Z,96885.82
2019-05-05T09:58:18.396Z,96893.88
2019-05-05T10:00:49.738Z,96894.02
2019-05-05T10:03:20.651Z,96891.63
2019-05-05T10:05:54.153Z,96892.05
2019-05-05T10:08:26.202Z,96900.94
2019-05-05T10:10:57.430Z,96896.48
2019-05-05T10:13:38.609Z,96898.72
2019-05-05T10:16:09.565Z,96894.64
2019-05-05T10:18:42.046Z,96894.91
2019-05-05T10:21:17.575Z,96898.14
2019-05-05T10:23:49.652Z,96896.48
2019-05-05T10:26:21.125Z,96900.54
2019-05-05T10:28:53.687Z,96894.85
2019-05-05T10:31:34.504Z,96895.05
2019-05-05T10:34:07.584Z,96896.04
2019-05-05T10:36:44.247Z,96898.44
2019-05-05T10:39:27.764Z,96897.60
2019-05-05T10:42:04.244Z,96907.14
2019-05-05T10:44:35.439Z,96902.20
2019-05-05T10:47:06.804Z,96893.28
2019-05-05T10:49:38.601Z,96893.95
2019-05-05T10:52:10.315Z,96897.45
2019-05-05T10:54:44.859Z,96899.03
2019-05-05T10:57:23.657Z,96893.38
2019-05-05T11:00:09.035Z,96888.65
2019-05-05T11:02:28.696Z,96887.57
2019-05-05T11:05:00.071Z,96897.83
2019-05-05T11:07:30.698Z,96894.75
2019-05-05T11:10:03.997Z,96896.60
2019-05-05T11:12:34.933Z,96902.69
2019-05-05T11:15:07.834Z,96907.67
2019-05-05T11:17:43.928Z,96909.67
2019-05-05T11:20:14.821Z,96907.91
2019-05-05T11:22:46.928Z,96914.69
2019-05-05T11:25:18.071Z,96910.16
2019-05-05T11:28:00.411Z,96905.19
2019-05-05T11:30:50.599Z,96908.85
2019-05-05T11:34:03.873Z,96911.36
2019-05-05T11:36:47.183Z,96905.67
2019-05-05T11:39:25.068Z,96915.20
2019-05-05T11:41:55.999Z,96917.22
2019-05-05T11:44:27.737Z,96907.92
2019-05-05T11:46:59.103Z,96909.45
2019-05-05T11:49:30.182Z,96915.39
2019-05-05T11:52:01.825Z,96911.80
2019-05-05T11:54:33.032Z,96906.72
2019-05-05T11:57:20.275Z,96902.62
2019-05-05T11:59:53.977Z,96902.58
2019-05-05T12:02:26.586Z,96907.44
2019-05-05T12:05:14.105Z,96910.89
2019-05-05T12:07:46.937Z,96909.32
2019-05-05T12:10:37.152Z,96912.34
2019-05-05T12:13:12.201Z,96924.67
2019-05-05T12:15:46.776Z,96909.22
2019-05-05T12:18:18.598Z,96916.28
2019-05-05T12:20:51.475Z,96917.88
2019-05-05T12:23:26.381Z,96923.78
2019-05-05T12:26:31.537Z,96916.92
2019-05-05T12:29:25.882Z,96922.49
2019-05-05T12:31:56.869Z,96931.82
2019-05-05T12:34:28.448Z,96923.31
2019-05-05T12:37:05.161Z,96943.91
2019-05-05T12:39:36.138Z,96937.19
2019-05-05T12:42:07.159Z,96941.72
2019-05-05T12:44:42.722Z,96927.73
2019-05-05T12:47:48.255Z,96929.69
2019-05-05T12:50:19.551Z,96932.77
2019-05-05T12:52:50.346Z,96927.96
2019-05-05T12:55:21.662Z,96926.77
2019-05-05T12:57:54.017Z,96924.58
2019-05-05T13:00:26.216Z,96926.55
2019-05-05T13:02:57.172Z,96940.66
2019-05-05T13:05:29.221Z,96935.48
2019-05-05T13:08:00.387Z,96935.09
2019-05-05T13:10:35.942Z,96941.98
2019-05-05T13:13:11.626Z,96934.59
2019-05-05T13:15:44.316Z,96935.95
2019-05-05T13:18:24.541Z,96927.48
2019-05-05T13:21:12.262Z,96928.23
2019-05-05T13:24:17.319Z,96917.02
2019-05-05T13:27:01.693Z,96918.46
2019-05-05T13:29:33.817Z,96927.17
2019-05-05T13:32:05.605Z,96914.16
2019-05-05T13:34:37.204Z,96910.17
2019-05-05T13:37:09.179Z,96912.98
2019-05-05T13:39:41.272Z,96904.02
2019-05-05T13:42:13.860Z,96912.91
2019-05-05T13:45:03.824Z,96913.92
2019-05-05T13:47:36.458Z,96914.30
2019-05-05T13:50:14.122Z,96910.61
2019-05-05T13:52:45.201Z,96914.72
2019-05-05T13:55:20.693Z,96920.94
2019-05-05T13:57:51.775Z,96914.80
2019-05-05T14:00:22.672Z,96921.56
2019-05-05T14:02:54.539Z,96917.80
2019-05-05T14:05:34.462Z,96924.88
2019-05-05T14:08:12.049Z,96921.46
2019-05-05T14:10:44.186Z,96912.11
2019-05-05T14:13:15.223Z,96907.80
2019-05-05T14:15:47.245Z,96909.52
2019-05-05T14:18:18.252Z,96909.01
2019-05-05T14:20:49.841Z,96906.02
2019-05-05T14:23:25.311Z,96903.63
2019-05-05T14:25:57.382Z,96890.34
2019-05-05T14:28:28.912Z,96894.41
2019-05-05T14:31:13.939Z,96901.51
2019-05-05T14:33:54.489Z,96900.34
2019-05-05T14:36:44.134Z,96904.02
2019-05-05T14:39:16.228Z,96903.29
2019-05-05T14:41:46.921Z,96894.96
2019-05-05T14:44:17.228Z,96902.80
2019-05-05T14:46:48.588Z,96903.38
2019-05-05T14:49:21.912Z,96903.24
2019-05-05T14:51:53.854Z,96897.39
2019-05-05T14:54:25.842Z,96893.34
2019-05-05T14:56:57.148Z,96904.37
2019-05-05T14:59:28.946Z,96901.30
2019-05-05T15:02:09.872Z,96912.81
2019-05-05T15:05:44.446Z,96912.48
2019-05-05T15:08:37.885Z,96928.56
2019-05-05T15:11:30.389Z,96926.61
2019-05-05T15:14:07.076Z,96920.22
2019-05-05T15:16:38.102Z,96932.02
2019-05-05T15:19:09.326Z,96923.08
2019-05-05T15:21:41.044Z,96925.50
2019-05-05T15:24:14.206Z,96925.28
2019-05-05T15:26:56.916Z,96938.81
2019-05-05T15:29:27.997Z,96941.91
2019-05-05T15:32:01.938Z,96950.88
2019-05-05T15:34:34.395Z,96955.25
2019-05-05T15:37:05.980Z,96956.55
2019-05-05T15:39:37.740Z,96968.50
2019-05-05T15:42:09.254Z,96960.43
2019-05-05T15:44:43.914Z,96961.05
2019-05-05T15:47:15.453Z,96968.84
2019-05-05T15:49:47.279Z,96969.77
2019-05-05T15:52:20.213Z,96971.10
2019-05-05T15:54:51.195Z,96970.97
2019-05-05T15:57:24.132Z,96970.90
2019-05-05T15:59:58.503Z,96964.05
2019-05-05T16:02:30.741Z,96971.01
2019-05-05T16:05:04.400Z,96970.12
2019-05-05T16:07:46.836Z,96964.95
2019-05-05T16:10:19.186Z,96967.16
2019-05-05T16:12:51.402Z,96962.58
2019-05-05T16:15:41.307Z,96956.83
2019-05-05T16:18:26.549Z,96964.39
2019-05-05T16:21:09.683Z,96961.13
2019-05-05T16:23:46.310Z,96957.77
2019-05-05T16:26:17.731Z,96960.63
2019-05-05T16:28:49.090Z,96965.72
2019-05-05T16:31:19.768Z,96955.46
2019-05-05T16:33:56.784Z,96956.86
2019-05-05T16:36:28.558Z,96961.89
2019-05-05T16:39:07.615Z,96960.81
2019-05-05T16:41:40.073Z,96959.16
2019-05-05T16:44:19.870Z,96967.28
2019-05-05T16:46:54.000Z,96967.31
2019-05-05T16:49:25.057Z,96974.85
2019-05-05T16:52:11.275Z,96973.52
2019-05-05T16:55:04.694Z,96983.91
2019-05-05T16:57:36.835Z,96981.80
2019-05-05T17:00:09.142Z,96977.66
2019-05-05T17:02:40.821Z,96983.77
2019-05-05T17:05:13.726Z,96979.25
2019-05-05T17:07:45.409Z,96981.91
2019-05-05T17:10:17.387Z,96988.80
2019-05-05T17:12:49.225Z,96983.56
2019-05-05T17:15:45.070Z,96991.45
2019-05-05T17:18:36.663Z,96993.84
2019-05-05T17:21:15.023Z,96992.68
2019-05-05T17:23:46.656Z,96997.27
2019-05-05T17:26:18.323Z,96998.72
2019-05-05T17:28:50.021Z,96999.84
2019-05-05T17:31:21.395Z,96999.66
2019-05-05T17:33:55.275Z,97000.69
2019-05-05T17:36:25.527Z,96995.25
2019-05-05T17:38:57.197Z,96999.20
2019-05-05T17:41:45.756Z,97003.48
2019-05-05T17:44:26.300Z,97000.64
2019-05-05T17:47:10.299Z,97008.23
2019-05-05T17:50:09.138Z,97009.29
2019-05-05T17:52:53.807Z,97005.81
2019-05-05T17:55:34.089Z,97008.29
2019-05-05T17:58:05.587Z,97017.06
2019-05-05T18:00:43.903Z,97008.61
2019-05-05T18:03:16.106Z,97014.43
2019-05-05T18:06:08.831Z,97015.05
2019-05-05T18:08:59.124Z,97017.73
2019-05-05T18:11:53.562Z,97019.91
2019-05-05T18:14:26.133Z,97019.84
2019-05-05T18:16:57.455Z,97021.33
2019-05-05T18:19:29.401Z,97029.52
2019-05-05T18:22:00.997Z,97028.63
2019-05-05T18:24:33.715Z,97043.86
2019-05-05T18:27:04.804Z,97036.94
2019-05-05T18:29:37.066Z,97044.59
2019-05-05T18:32:07.961Z,97047.30
2019-05-05T18:34:39.525Z,97044.61
2019-05-05T18:37:11.068Z,97050.64
2019-05-05T18:39:43.854Z,97053.94
2019-05-05T18:42:19.861Z,97050.84
2019-05-05T18:44:58.975Z,97051.67
2019-05-05T18:47:30.631Z,97052.86
2019-05-05T18:50:04.147Z,97056.30
2019-05-05T18:52:36.323Z,97060.24
2019-05-05T18:55:07.203Z,97059.22
2019-05-05T18:57:38.276Z,97068.53
2019-05-05T19:00:11.633Z,97071.44
2019-05-05T19:02:55.302Z,97068.70
2019-05-05T19:05:53.704Z,97074.13
2019-05-05T19:08:28.215Z,97079.11
2019-05-05T19:10:59.178Z,97076.82
2019-05-05T19:13:35.036Z,97081.00
2019-05-05T19:16:07.296Z,97086.31
2019-05-05T19:18:44.744Z,97087.88
2019-05-05T19:21:38.028Z,97092.48
2019-05-05T19:24:14.527Z,97094.58
2019-05-05T19:26:48.725Z,97095.10
2019-05-05T19:29:21.144Z,97104.36
2019-05-05T19:32:05.244Z,97105.30
2019-05-05T19:34:37.187Z,97109.97
2019-05-05T19:37:13.984Z,97110.39
2019-05-05T19:39:46.421Z,97108.08
2019-05-05T19:42:17.503Z,97110.41
2019-05-05T19:44:49.872Z,97114.14
2019-05-05T19:47:21.911Z,97107.98
2019-05-05T19:50:14.440Z,97118.53
2019-05-05T19:52:47.343Z,97124.21
2019-05-05T19:55:18.732Z,97127.63
2019-05-05T19:57:50.315Z,97128.97
2019-05-05T20:00:26.356Z,97129.64
2019-05-05T20:03:04.547Z,97127.84
2019-05-05T20:05:34.667Z,97130.15
2019-05-05T20:08:06.179Z,97128.67
2019-05-05T20:10:59.853Z,97133.24
2019-05-05T20:13:33.515Z,97124.67
2019-05-05T20:16:21.913Z,97127.02
2019-05-05T20:18:59.688Z,97125.19
2019-05-05T20:21:32.188Z,97129.25
2019-05-05T20:24:07.359Z,97125.69
2019-05-05T20:26:38.790Z,97123.83
2019-05-05T20:29:14.152Z,97121.33
2019-05-05T20:31:45.837Z,97123.05
2019-05-05T20:34:35.352Z,97125.80
2019-05-05T20:37:10.206Z,97128.92
2019-05-05T20:39:43.729Z,97123.11
2019-05-05T20:42:15.076Z,97117.68
2019-05-05T20:44:54.387Z,97131.17
2019-05-05T20:47:26.139Z,97130.30
2019-05-05T20:49:57.544Z,97130.13
2019-05-05T20:52:28.845Z,97128.34
2019-05-05T20:55:00.962Z,97122.19
2019-05-05T20:57:49.625Z,97121.21
2019-05-05T21:00:20.700Z,97120.39
2019-05-05T21:02:53.806Z,97116.95
2019-05-05T21:05:25.599Z,97120.62
2019-05-05T21:07:57.075Z,97119.11
2019-05-05T21:10:28.319Z,97120.17
2019-05-05T21:13:00.083Z,97123.53
2019-05-05T21:15:34.084Z,97125.84
2019-05-05T21:18:06.064Z,97124.77
2019-05-05T21:20:40.993Z,97117.95
2019-05-05T21:23:34.308Z,97125.94
2019-05-05T21:26:08.460Z,97128.61
2019-05-05T21:28:40.149Z,97132.12
2019-05-05T21:31:14.326Z,97125.20
2019-05-05T21:33:47.046Z,97125.47
2019-05-05T21:36:21.057Z,97121.62
2019-05-05T21:38:54.742Z,97120.87
2019-05-05T21:41:26.212Z,97118.67
2019-05-05T21:43:57.368Z,97120.94
2019-05-05T21:46:32.172Z,97117.00
2019-05-05T21:49:06.668Z,97124.88
2019-05-05T21:51:56.371Z,97118.49
2019-05-05T21:54:50.598Z,97121.52
2019-05-05T21:57:44.053Z,97129.63
2019-05-05T22:00:38.134Z,97119.16
2019-05-05T22:03:09.824Z,97124.17
2019-05-05T22:05:42.399Z,97126.28
2019-05-05T22:08:14.444Z,97127.59
2019-05-05T22:10:46.387Z,97128.98
2019-05-05T22:13:30.357Z,97121.41
2019-05-05T22:16:04.110Z,97130.00
2019-05-05T22:18:36.632Z,97126.25
2019-05-05T22:21:17.849Z,97132.03
2019-05-05T22:24:19.897Z,97128.71
2019-05-05T22:26:53.919Z,97129.43
2019-05-05T22:29:35.626Z,97129.05
2019-05-05T22:32:07.541Z,97128.41
2019-05-05T22:34:39.532Z,97126.53
2019-05-05T22:37:14.394Z,97127.16
2019-05-05T22:39:46.406Z,97131.64
2019-05-05T22:42:17.256Z,97129.87
2019-05-05T22:44:49.181Z,97130.48
2019-05-05T22:47:26.074Z,97129.09
2019-05-05T22:49:57.065Z,97126.68
2019-05-05T22:52:29.184Z,97130.64
2019-05-05T22:55:00.444Z,97131.91
2019-05-05T22:57:34.280Z,97127.87
2019-05-05T23:00:05.524Z,97127.82
2019-05-05T23:02:39.225Z,97127.36
2019-05-05T23:05:28.357Z,97122.83
2019-05-05T23:08:00.013Z,97124.19
2019-05-05T23:10:31.171Z,97125.02
2019-05-05T23:13:03.998Z,97122.56
2019-05-05T23:15:37.743Z,97129.69
2019-05-05T23:18:18.338Z,97124.86
2019-05-05T23:21:24.816Z,97125.08
2019-05-05T23:24:30.451Z,97124.23
2019-05-05T23:27:03.793Z,97125.28
2019-05-05T23:29:35.281Z,97125.93
2019-05-05T23:32:06.379Z,97130.31
2019-05-05T23:34:38.010Z,97133.31
2019-05-05T23:37:08.641Z,97129.28
2019-05-05T23:39:40.410Z,97130.09
2019-05-05T23:42:24.756Z,97137.22
2019-05-05T23:45:08.527Z,97131.95
2019-05-05T23:47:44.846Z,97132.52
2019-05-05T23:50:16.463Z,97131.38
2019-05-05T23:52:47.243Z,97135.02
2019-05-05T23:55:18.381Z,97130.89
2019-05-05T23:57:49.459Z,97135.28
